createdAt,value
2023-05-13T00:01:19.808Z,99616.03
2023-05-13T00:03:48.568Z,99606.91
2023-05-13T00:06:16.246Z,99606.50
2023-05-13T00:08:44.811Z,99623.34
2023-05-13T00:11:14.561Z,99642.66
2023-05-13T00:13:43.071Z,99616.66
2023-05-13T00:16:10.481Z,99619.78
2023-05-13T00:18:38.351Z,99627.28
2023-05-13T00:21:05.762Z,99620.19
2023-05-13T00:23:33.718Z,99628.94
2023-05-13T00:26:01.586Z,99633.88
2023-05-13T00:28:28.985Z,99652.78
2023-05-13T00:30:56.298Z,99641.53
2023-05-13T00:33:23.994Z,99635.72
2023-05-13T00:35:51.697Z,99642.31
2023-05-13T00:38:18.766Z,99654.19
2023-05-13T00:40:47.620Z,99653.13
2023-05-13T00:43:14.702Z,99654.97
2023-05-13T00:45:42.101Z,99648.31
2023-05-13T00:48:11.012Z,99636.22
2023-05-13T00:50:40.236Z,99651.56
2023-05-13T00:53:07.754Z,99655.53
2023-05-13T00:55:37.070Z,99638.47
2023-05-13T00:58:04.558Z,99644.91
2023-05-13T01:00:38.520Z,99658.59
2023-05-13T01:03:26.596Z,99656.25
2023-05-13T01:06:07.038Z,99651.50
2023-05-13T01:08:47.543Z,99668.75
2023-05-13T01:11:26.399Z,99646.72
2023-05-13T01:14:17.403Z,99647.75
2023-05-13T01:17:00.459Z,99641.69
2023-05-13T01:19:37.295Z,99666.03
2023-05-13T01:22:07.620Z,99633.53
2023-05-13T01:24:36.168Z,99651.63
2023-05-13T01:27:06.337Z,99671.81
2023-05-13T01:29:33.923Z,99655.16
2023-05-13T01:32:05.504Z,99657.41
2023-05-13T01:34:34.638Z,99656.34
2023-05-13T01:37:01.988Z,99665.56
2023-05-13T01:39:32.695Z,99673.22
2023-05-13T01:42:05.040Z,99656.19
2023-05-13T01:44:35.061Z,99636.44
2023-05-13T01:47:03.274Z,99655.16
2023-05-13T01:49:33.426Z,99675.47
2023-05-13T01:52:02.708Z,99674.66
2023-05-13T01:54:30.848Z,99658.47
2023-05-13T01:57:05.820Z,99675.91
2023-05-13T01:59:34.622Z,99673.41
2023-05-13T02:02:02.809Z,99676.72
2023-05-13T02:04:30.969Z,99683.78
2023-05-13T02:06:59.026Z,99677.94
2023-05-13T02:09:30.418Z,99698.28
2023-05-13T02:11:58.749Z,99679.63
2023-05-13T02:14:26.321Z,99714.91
2023-05-13T02:16:53.489Z,99698.06
2023-05-13T02:19:23.418Z,99699.09
2023-05-13T02:21:55.559Z,99700.91
2023-05-13T02:24:24.419Z,99681.09
2023-05-13T02:26:52.261Z,99683.69
2023-05-13T02:29:20.938Z,99677.06
2023-05-13T02:31:48.428Z,99703.88
2023-05-13T02:34:16.350Z,99692.38
2023-05-13T02:36:44.440Z,99705.31
2023-05-13T02:39:12.041Z,99680.94
2023-05-13T02:41:42.099Z,99702.97
2023-05-13T02:44:09.582Z,99718.47
2023-05-13T02:46:37.791Z,99679.88
2023-05-13T02:49:06.528Z,99691.00
2023-05-13T02:51:35.959Z,99720.53
2023-05-13T02:54:04.927Z,99705.63
2023-05-13T02:56:32.831Z,99703.56
2023-05-13T02:59:00.249Z,99710.69
2023-05-13T03:01:27.722Z,99714.94
2023-05-13T03:04:01.977Z,99711.94
2023-05-13T03:09:12.067Z,99714.19
2023-05-13T03:17:23.649Z,99733.81
2023-05-13T03:20:11.966Z,99714.41
2023-05-13T03:22:39.200Z,99728.63
2023-05-13T03:36:10.561Z,99709.44
2023-05-13T03:38:40.766Z,99719.03
2023-05-13T03:41:11.420Z,99725.16
2023-05-13T03:43:39.372Z,99738.09
2023-05-13T03:49:06.518Z,99692.06
2023-05-13T03:59:54.026Z,99731.19
2023-05-13T04:02:22.669Z,99744.69
2023-05-13T04:11:48.004Z,99727.31
2023-05-13T04:28:10.876Z,99745.78
2023-05-13T04:37:31.546Z,99741.13
2023-05-13T04:46:51.329Z,99729.81
2023-05-13T04:56:05.367Z,99751.50
2023-05-13T04:58:32.790Z,99741.53
2023-05-13T05:00:59.985Z,99728.03
2023-05-13T05:24:40.880Z,99733.28
2023-05-13T05:27:09.617Z,99758.81
2023-05-13T05:38:42.526Z,99718.00
2023-05-13T05:41:10.500Z,99754.97
2023-05-13T05:43:39.832Z,99759.72
2023-05-13T05:46:20.807Z,99736.47
2023-05-13T05:48:48.288Z,99761.00
2023-05-13T05:51:17.667Z,99748.53
2023-05-13T05:53:44.681Z,99761.38
2023-05-13T05:56:13.519Z,99743.84
2023-05-13T06:10:17.330Z,99741.19
2023-05-13T06:12:46.927Z,99769.81
2023-05-13T06:15:13.961Z,99780.00
2023-05-13T06:17:41.337Z,99762.50
2023-05-13T06:20:08.823Z,99762.09
2023-05-13T06:22:37.331Z,99770.28
2023-05-13T06:31:45.895Z,99762.28
2023-05-13T06:34:17.888Z,99765.16
2023-05-13T06:37:01.097Z,99778.19
2023-05-13T06:45:05.977Z,99756.34
2023-05-13T06:52:59.534Z,99762.63
2023-05-13T06:55:35.072Z,99743.72
2023-05-13T06:58:02.035Z,99769.28
2023-05-13T07:00:29.018Z,99749.81
2023-05-13T07:19:17.271Z,99721.22
2023-05-13T07:21:44.384Z,99732.91
2023-05-13T07:40:55.110Z,99763.09
2023-05-13T07:43:24.166Z,99761.13
2023-05-13T07:45:51.843Z,99755.16
2023-05-13T07:48:21.874Z,99775.97
2023-05-13T07:50:54.342Z,99713.84
2023-05-13T08:04:16.888Z,99761.47
2023-05-13T08:06:44.661Z,99765.13
2023-05-13T08:09:17.872Z,99750.56
2023-05-13T08:11:47.586Z,99770.25
2023-05-13T08:25:21.058Z,99719.72
2023-05-13T08:30:34.748Z,99731.63
2023-05-13T08:33:02.984Z,99717.47
2023-05-13T08:35:38.057Z,99713.59
2023-05-13T08:38:05.797Z,99739.63
2023-05-13T08:51:34.252Z,99699.59
2023-05-13T08:54:01.510Z,99730.53
2023-05-13T08:56:29.932Z,99699.34
2023-05-13T08:58:56.946Z,99716.97
2023-05-13T09:01:36.362Z,99700.00
2023-05-13T09:10:44.171Z,99699.28
2023-05-13T10:25:30.008Z,99676.72
2023-05-13T10:27:57.902Z,99664.53
2023-05-13T10:51:46.121Z,99650.09
2023-05-13T10:59:16.592Z,99664.66
2023-05-13T11:04:33.337Z,99638.78
2023-05-13T11:07:26.162Z,99654.38
2023-05-13T11:12:43.779Z,99639.47
2023-05-13T11:15:22.203Z,99647.66
2023-05-13T11:17:55.903Z,99669.84
2023-05-13T11:20:24.934Z,99649.75
2023-05-13T11:25:40.765Z,99648.41
2023-05-13T11:30:57.730Z,99651.97
2023-05-13T11:34:05.728Z,99631.34
2023-05-13T11:36:34.019Z,99625.03
2023-05-13T11:39:27.377Z,99642.53
2023-05-13T11:47:41.597Z,99595.97
2023-05-13T11:53:09.450Z,99596.13
2023-05-13T11:55:36.722Z,99581.78
2023-05-13T11:58:04.286Z,99598.03
2023-05-13T12:00:33.691Z,99597.88
2023-05-13T12:03:09.606Z,99599.19
2023-05-13T12:05:40.000Z,99591.16
2023-05-13T12:22:21.960Z,99599.53
2023-05-13T12:24:49.132Z,99636.91
2023-05-13T12:27:16.881Z,99603.09
2023-05-13T12:29:44.100Z,99589.41
2023-05-13T12:32:16.591Z,99587.81
2023-05-13T12:51:19.010Z,99583.28
2023-05-13T12:57:24.564Z,99597.88
2023-05-13T12:59:51.639Z,99591.00
2023-05-13T13:02:30.478Z,99557.09
2023-05-13T13:04:57.791Z,99576.97
2023-05-13T13:07:24.898Z,99569.81
2023-05-13T13:16:53.729Z,99599.41
2023-05-13T13:19:20.898Z,99585.16
2023-05-13T13:21:50.413Z,99577.22
2023-05-13T13:29:54.136Z,99593.66
2023-05-13T13:37:49.808Z,99559.91
2023-05-13T13:40:17.263Z,99597.47
2023-05-13T13:42:45.125Z,99602.25
2023-05-13T13:45:15.566Z,99565.19
2023-05-13T13:47:50.900Z,99577.59
2023-05-13T13:50:18.404Z,99560.88
2023-05-13T13:52:45.520Z,99591.31
2023-05-13T13:55:54.333Z,99594.91
2023-05-13T13:58:22.409Z,99570.00
2023-05-13T14:00:49.621Z,99567.22
2023-05-13T14:07:36.382Z,99576.41
2023-05-13T14:10:05.744Z,99575.03
2023-05-13T14:19:20.525Z,99569.38
2023-05-13T14:21:47.683Z,99560.38
2023-05-13T14:24:14.652Z,99592.97
2023-05-13T14:26:41.766Z,99584.63
2023-05-13T14:29:08.908Z,99574.47
2023-05-13T14:31:45.803Z,99592.84
2023-05-13T14:34:13.966Z,99573.16
2023-05-13T14:45:50.025Z,99547.81
2023-05-13T14:48:17.195Z,99585.91
2023-05-13T15:05:08.784Z,99554.41
2023-05-13T15:07:35.948Z,99561.31
2023-05-13T15:10:03.297Z,99568.88
2023-05-13T15:12:30.977Z,99562.19
2023-05-13T15:14:58.841Z,99561.91
2023-05-13T15:17:26.563Z,99545.72
2023-05-13T15:19:53.540Z,99554.25
2023-05-13T15:22:20.889Z,99560.22
2023-05-13T15:25:38.252Z,99572.56
2023-05-13T15:32:44.605Z,99560.41
2023-05-13T15:35:11.718Z,99553.41
2023-05-13T15:38:05.220Z,99573.31
2023-05-13T15:40:32.382Z,99539.69
2023-05-13T15:42:59.403Z,99553.47
2023-05-13T15:45:26.589Z,99566.53
2023-05-13T15:47:53.809Z,99549.66
2023-05-13T15:50:21.354Z,99556.94
2023-05-13T15:52:48.582Z,99568.53
2023-05-13T15:55:15.771Z,99529.53
2023-05-13T15:58:33.905Z,99571.97
2023-05-13T16:01:00.994Z,99559.34
2023-05-13T16:03:53.281Z,99568.53
2023-05-13T16:08:21.809Z,99564.53
2023-05-13T16:10:49.043Z,99570.50
2023-05-13T16:13:16.058Z,99556.13
2023-05-13T16:15:43.216Z,99569.59
2023-05-13T16:22:42.027Z,99543.16
2023-05-13T16:29:38.602Z,99552.41
2023-05-13T16:36:37.060Z,99568.50
2023-05-13T16:39:04.607Z,99552.47
2023-05-13T16:46:19.689Z,99598.56
2023-05-13T16:48:46.724Z,99569.41
2023-05-13T16:51:24.339Z,99589.81
2023-05-13T16:58:29.291Z,99554.91
2023-05-13T17:00:58.551Z,99593.03
2023-05-13T17:05:43.823Z,99600.34
2023-05-13T17:08:11.317Z,99579.84
2023-05-13T17:10:38.600Z,99587.91
2023-05-13T17:13:05.697Z,99585.25
2023-05-13T17:20:00.326Z,99583.50
2023-05-13T17:22:27.527Z,99618.63
2023-05-13T17:24:54.547Z,99600.19
2023-05-13T17:31:52.560Z,99613.81
2023-05-13T17:34:20.067Z,99602.91
2023-05-13T17:36:49.950Z,99611.78
2023-05-13T17:43:47.594Z,99625.53
2023-05-13T17:46:14.595Z,99626.97
2023-05-13T17:48:42.406Z,99638.44
2023-05-13T17:51:09.604Z,99629.34
2023-05-13T17:58:26.732Z,99641.88
2023-05-13T18:00:54.390Z,99621.41
2023-05-13T18:03:22.023Z,99633.84
2023-05-13T18:05:50.516Z,99632.41
2023-05-13T18:08:17.586Z,99635.25
2023-05-13T18:10:44.534Z,99624.25
2023-05-13T18:13:17.531Z,99628.06
2023-05-13T18:15:44.678Z,99643.06
2023-05-13T18:18:11.771Z,99653.44
2023-05-13T18:25:13.335Z,99649.63
2023-05-13T18:27:40.561Z,99623.94
2023-05-13T18:30:08.248Z,99646.56
2023-05-13T18:37:05.620Z,99644.13
2023-05-13T18:39:46.470Z,99663.75
2023-05-13T18:42:13.505Z,99656.09
2023-05-13T18:44:40.875Z,99667.91
2023-05-13T18:51:40.055Z,99640.13
2023-05-13T18:54:07.077Z,99669.81
2023-05-13T19:01:09.081Z,99642.31
2023-05-13T19:03:36.430Z,99658.25
2023-05-13T19:06:08.174Z,99674.78
2023-05-13T19:13:30.709Z,99672.78
2023-05-13T19:16:12.320Z,99676.31
2023-05-13T19:18:39.419Z,99675.78
2023-05-13T19:25:32.677Z,99674.31
2023-05-13T19:28:31.205Z,99672.97
2023-05-13T19:31:02.219Z,99674.25
2023-05-13T19:33:33.535Z,99683.31
2023-05-13T19:36:01.227Z,99668.91
2023-05-13T19:38:28.347Z,99688.66
2023-05-13T19:41:11.044Z,99697.69
2023-05-13T19:43:38.233Z,99678.94
2023-05-13T19:50:44.691Z,99702.03
2023-05-13T19:53:12.760Z,99698.44
2023-05-13T19:55:39.757Z,99691.78
2023-05-13T20:11:58.154Z,99718.72
2023-05-13T20:14:27.846Z,99716.63
2023-05-13T20:26:25.961Z,99706.75
2023-05-13T20:28:53.388Z,99737.06
2023-05-13T20:31:20.674Z,99728.19
2023-05-13T20:33:47.667Z,99711.41
2023-05-13T20:36:14.663Z,99731.59
2023-05-13T20:43:22.091Z,99715.88
2023-05-13T20:45:49.213Z,99735.44
2023-05-13T20:48:16.289Z,99731.69
2023-05-13T20:50:43.409Z,99739.25
2023-05-13T20:53:10.442Z,99742.38
2023-05-13T20:55:37.499Z,99732.84
2023-05-13T21:02:33.227Z,99751.44
2023-05-13T21:05:00.620Z,99756.19
2023-05-13T21:07:27.615Z,99750.78
2023-05-13T21:09:54.609Z,99723.31
2023-05-13T21:12:23.459Z,99748.31
2023-05-13T21:14:50.626Z,99753.94
2023-05-13T21:17:21.669Z,99762.69
2023-05-13T21:29:18.685Z,99759.88
2023-05-13T21:32:12.126Z,99761.09
2023-05-13T21:34:39.170Z,99753.63
2023-05-13T21:37:06.431Z,99754.69
2023-05-13T21:41:41.974Z,99753.03
2023-05-13T21:44:08.987Z,99771.94
2023-05-13T21:46:36.122Z,99747.38
2023-05-13T21:49:03.413Z,99765.50
2023-05-13T21:51:32.696Z,99769.44
2023-05-13T21:53:59.701Z,99765.47
2023-05-13T22:00:54.533Z,99764.00
2023-05-13T22:03:21.661Z,99726.53
2023-05-13T22:05:48.705Z,99757.97
2023-05-13T22:12:49.707Z,99755.81
2023-05-13T22:24:25.522Z,99763.09
2023-05-13T22:26:52.710Z,99781.72
2023-05-13T22:29:19.738Z,99776.31
2023-05-13T22:36:20.156Z,99766.72
2023-05-13T22:38:47.344Z,99773.16
2023-05-13T22:41:14.284Z,99761.66
2023-05-13T22:48:14.032Z,99782.72
2023-05-13T22:50:41.450Z,99779.59
2023-05-13T22:53:08.401Z,99763.78
2023-05-13T22:55:35.400Z,99761.09
2023-05-13T23:02:31.624Z,99743.75
2023-05-13T23:04:58.585Z,99776.50
2023-05-13T23:16:31.812Z,99764.44
2023-05-13T23:18:58.886Z,99788.91
2023-05-13T23:21:26.193Z,99772.53
2023-05-13T23:23:53.250Z,99792.53
2023-05-13T23:26:20.454Z,99778.44
2023-05-13T23:38:02.575Z,99798.16
2023-05-13T23:45:04.556Z,99802.50
2023-05-13T23:47:32.302Z,99797.69
2023-05-13T23:54:26.989Z,99814.63
2023-05-13T23:56:54.011Z,99816.22
